createdAt,value
2023-03-06T00:01:17.779Z,5.20
2023-03-06T00:03:48.563Z,5.00
2023-03-06T00:06:20.970Z,4.20
2023-03-06T00:08:55.668Z,3.40
2023-03-06T00:11:26.015Z,5.60
2023-03-06T00:13:53.854Z,4.60
2023-03-06T00:16:23.163Z,5.80
2023-03-06T00:18:49.611Z,3.20
2023-03-06T00:21:16.526Z,2.60
2023-03-06T00:23:43.233Z,4.50
2023-03-06T00:26:10.610Z,5.50
2023-03-06T00:28:38.725Z,3.40
2023-03-06T00:31:08.554Z,4.10
2023-03-06T00:33:36.064Z,4.90
2023-03-06T00:36:05.611Z,5.40
2023-03-06T00:38:35.485Z,4.30
2023-03-06T00:41:13.201Z,3.10
2023-03-06T00:43:58.202Z,6.00
2023-03-06T00:46:25.197Z,5.60
2023-03-06T00:48:57.300Z,4.90
2023-03-06T00:51:33.746Z,4.80
2023-03-06T00:54:03.656Z,4.90
2023-03-06T00:56:40.572Z,4.50
2023-03-06T00:59:12.529Z,3.90
2023-03-06T01:01:42.877Z,7.60
2023-03-06T01:04:12.041Z,6.30
2023-03-06T01:06:45.294Z,4.50
2023-03-06T01:09:15.859Z,4.00
2023-03-06T01:11:42.704Z,5.90
2023-03-06T01:14:09.811Z,4.60
2023-03-06T01:16:41.896Z,4.70
2023-03-06T01:19:11.186Z,4.20
2023-03-06T01:21:38.095Z,4.00
2023-03-06T01:24:05.157Z,4.20
2023-03-06T01:26:32.142Z,4.70
2023-03-06T01:29:01.715Z,4.10
2023-03-06T01:31:31.001Z,5.00
2023-03-06T01:34:04.696Z,4.30
2023-03-06T01:36:35.652Z,5.30
2023-03-06T01:39:04.701Z,6.60
2023-03-06T01:41:41.695Z,4.20
2023-03-06T01:44:13.943Z,6.50
2023-03-06T01:46:44.150Z,5.00
2023-03-06T01:49:18.117Z,4.70
2023-03-06T01:52:27.369Z,4.90
2023-03-06T01:55:14.026Z,5.90
2023-03-06T01:57:46.825Z,4.30
2023-03-06T02:00:21.510Z,4.30
2023-03-06T02:02:53.846Z,5.10
2023-03-06T02:05:21.460Z,5.50
2023-03-06T02:07:50.100Z,3.90
2023-03-06T02:10:18.729Z,5.10
2023-03-06T02:12:47.394Z,4.80
2023-03-06T02:15:17.435Z,5.20
2023-03-06T02:17:46.236Z,7.40
2023-03-06T02:20:21.112Z,5.70
2023-03-06T02:23:15.552Z,5.70
2023-03-06T02:25:45.607Z,5.00
2023-03-06T02:28:17.689Z,5.10
2023-03-06T02:30:46.500Z,5.60
2023-03-06T02:33:19.048Z,6.50
2023-03-06T02:35:57.820Z,4.80
2023-03-06T02:38:28.714Z,5.40
2023-03-06T02:40:57.968Z,4.60
2023-03-06T02:43:29.286Z,5.40
2023-03-06T02:45:56.107Z,6.10
2023-03-06T02:48:22.888Z,5.20
2023-03-06T02:50:49.853Z,8.30
2023-03-06T02:53:19.094Z,4.90
2023-03-06T02:55:48.993Z,7.30
2023-03-06T02:58:16.896Z,6.00
2023-03-06T03:00:43.619Z,5.30
2023-03-06T03:03:10.269Z,6.80
2023-03-06T03:05:37.182Z,5.20
2023-03-06T03:08:04.612Z,4.90
2023-03-06T03:10:31.307Z,5.40
2023-03-06T03:13:01.014Z,5.90
2023-03-06T03:15:27.873Z,5.20
2023-03-06T03:17:54.618Z,5.10
2023-03-06T03:20:26.810Z,8.30
2023-03-06T03:22:58.092Z,5.70
2023-03-06T03:25:26.360Z,5.00
2023-03-06T03:27:53.408Z,5.50
2023-03-06T03:30:20.480Z,4.70
2023-03-06T03:32:47.244Z,4.90
2023-03-06T03:35:14.338Z,5.80
2023-03-06T03:37:41.371Z,6.70
2023-03-06T03:40:11.691Z,5.80
2023-03-06T03:42:40.602Z,5.30
2023-03-06T03:45:07.950Z,5.00
2023-03-06T03:47:34.953Z,4.90
2023-03-06T03:50:01.649Z,6.60
2023-03-06T03:52:31.102Z,5.50
2023-03-06T03:54:58.199Z,6.30
2023-03-06T03:57:25.187Z,6.50
2023-03-06T03:59:51.792Z,4.40
2023-03-06T04:02:21.594Z,6.60
2023-03-06T04:04:49.101Z,4.90
2023-03-06T04:07:18.988Z,7.00
2023-03-06T04:09:45.812Z,4.90
2023-03-06T04:12:12.521Z,7.40
2023-03-06T04:14:39.132Z,4.50
2023-03-06T04:17:05.730Z,5.50
2023-03-06T04:19:32.309Z,4.40
2023-03-06T04:21:59.202Z,6.70
2023-03-06T04:24:28.961Z,5.40
2023-03-06T04:26:55.696Z,5.40
2023-03-06T04:29:22.462Z,5.30
2023-03-06T04:31:48.956Z,6.20
2023-03-06T04:34:15.744Z,4.30
2023-03-06T04:36:45.275Z,6.90
2023-03-06T04:39:14.513Z,5.00
2023-03-06T04:41:42.277Z,5.40
2023-03-06T04:44:09.632Z,4.80
2023-03-06T04:46:36.441Z,6.00
2023-03-06T04:49:04.130Z,7.20
2023-03-06T04:51:31.212Z,4.50
2023-03-06T04:53:57.795Z,6.20
2023-03-06T04:56:24.532Z,4.60
2023-03-06T04:58:51.468Z,7.40
2023-03-06T05:01:18.857Z,3.40
2023-03-06T05:03:45.576Z,5.40
2023-03-06T05:06:12.478Z,6.80
2023-03-06T05:08:39.271Z,4.50
2023-03-06T05:11:06.070Z,5.50
2023-03-06T05:13:32.840Z,5.00
2023-03-06T05:16:05.548Z,8.00
2023-03-06T05:18:33.407Z,7.20
2023-03-06T05:21:06.790Z,5.20
2023-03-06T05:23:36.481Z,6.20
2023-03-06T05:26:09.793Z,6.10
2023-03-06T05:28:36.627Z,7.30
2023-03-06T05:31:03.623Z,5.40
2023-03-06T05:33:35.230Z,6.90
2023-03-06T05:36:02.477Z,6.10
2023-03-06T05:38:29.430Z,5.90
2023-03-06T05:40:56.242Z,5.50
2023-03-06T05:43:23.291Z,8.80
2023-03-06T05:45:53.182Z,6.90
2023-03-06T05:48:20.151Z,6.40
2023-03-06T05:50:46.826Z,6.90
2023-03-06T05:53:13.387Z,7.50
2023-03-06T05:55:40.137Z,7.70
2023-03-06T05:58:06.650Z,9.30
2023-03-06T06:00:34.225Z,5.60
2023-03-06T06:03:02.074Z,6.10
2023-03-06T06:05:28.858Z,6.80
2023-03-06T06:07:55.947Z,8.30
2023-03-06T06:10:22.780Z,6.30
2023-03-06T06:12:49.562Z,9.30
2023-03-06T06:15:16.436Z,7.50
2023-03-06T06:17:43.389Z,6.40
2023-03-06T06:20:11.282Z,7.40
2023-03-06T06:22:38.350Z,8.90
2023-03-06T06:25:06.552Z,9.10
2023-03-06T06:27:33.472Z,6.90
2023-03-06T06:30:00.050Z,8.00
2023-03-06T06:32:26.729Z,7.10
2023-03-06T06:34:56.381Z,9.90
2023-03-06T06:37:26.019Z,13.20
2023-03-06T06:39:52.930Z,10.20
2023-03-06T06:42:33.304Z,8.50
2023-03-06T06:45:05.390Z,8.90
2023-03-06T06:47:34.325Z,7.20
2023-03-06T06:50:04.214Z,8.30
2023-03-06T06:52:30.965Z,9.30
2023-03-06T06:54:57.730Z,8.40
2023-03-06T06:57:24.471Z,7.20
2023-03-06T06:59:53.821Z,8.50
2023-03-06T07:02:20.982Z,7.80
2023-03-06T07:05:02.395Z,9.40
2023-03-06T07:07:31.491Z,12.80
2023-03-06T07:09:58.328Z,10.10
2023-03-06T07:12:25.338Z,9.00
2023-03-06T07:14:51.932Z,12.60
2023-03-06T07:17:18.968Z,10.10
2023-03-06T07:19:45.912Z,7.10
2023-03-06T07:22:15.664Z,8.00
2023-03-06T07:24:42.693Z,7.30
2023-03-06T07:27:09.816Z,10.00
2023-03-06T07:29:36.970Z,6.70
2023-03-06T07:32:04.344Z,8.10
2023-03-06T07:34:31.666Z,7.00
2023-03-06T07:37:00.896Z,6.20
2023-03-06T07:39:28.218Z,7.50
2023-03-06T07:41:55.145Z,6.70
2023-03-06T07:44:22.176Z,6.00
2023-03-06T07:46:49.395Z,6.00
2023-03-06T07:49:17.063Z,6.80
2023-03-06T07:51:44.274Z,5.70
2023-03-06T07:54:11.179Z,6.70
2023-03-06T07:56:38.191Z,7.10
2023-03-06T07:59:05.097Z,7.30
2023-03-06T08:01:32.066Z,7.40
2023-03-06T08:03:59.375Z,5.10
2023-03-06T08:06:30.213Z,5.60
2023-03-06T08:08:57.638Z,6.30
2023-03-06T08:11:27.264Z,4.90
2023-03-06T08:13:55.264Z,6.20
2023-03-06T08:16:26.956Z,6.30
2023-03-06T08:18:54.357Z,4.30
2023-03-06T08:21:24.107Z,4.90
2023-03-06T08:23:51.484Z,6.10
2023-03-06T08:26:23.989Z,3.60
2023-03-06T08:28:52.595Z,3.80
2023-03-06T08:31:25.845Z,6.90
2023-03-06T08:33:53.668Z,5.10
2023-03-06T08:36:20.979Z,3.60
2023-03-06T08:38:48.206Z,3.80
2023-03-06T08:41:15.682Z,5.60
2023-03-06T08:43:42.462Z,5.50
2023-03-06T08:46:10.755Z,4.80
2023-03-06T08:48:37.670Z,5.70
2023-03-06T08:51:04.646Z,5.90
2023-03-06T08:53:42.656Z,4.90
2023-03-06T08:56:25.751Z,5.40
2023-03-06T08:58:53.699Z,5.00
2023-03-06T09:01:29.090Z,3.60
2023-03-06T09:03:57.542Z,3.60
2023-03-06T09:06:27.499Z,2.30
2023-03-06T09:08:55.388Z,2.80
2023-03-06T09:11:25.893Z,4.30
2023-03-06T09:13:53.963Z,3.00
2023-03-06T09:16:21.803Z,2.50
2023-03-06T09:18:50.891Z,3.70
2023-03-06T09:21:17.828Z,3.00
2023-03-06T09:23:44.496Z,2.30
2023-03-06T09:26:12.483Z,2.60
2023-03-06T09:28:40.589Z,2.60
2023-03-06T09:31:09.695Z,3.30
2023-03-06T09:33:36.784Z,3.50
2023-03-06T09:36:04.148Z,2.90
2023-03-06T09:38:31.155Z,3.60
2023-03-06T09:40:57.960Z,2.40
2023-03-06T09:43:30.227Z,2.70
2023-03-06T09:45:59.383Z,2.30
2023-03-06T09:48:42.435Z,2.50
2023-03-06T09:51:16.611Z,3.30
2023-03-06T09:54:12.018Z,2.80
2023-03-06T09:56:39.263Z,3.20
2023-03-06T09:59:13.854Z,3.50
2023-03-06T10:01:44.203Z,3.40
2023-03-06T10:04:37.808Z,3.80
2023-03-06T10:07:18.386Z,2.50
2023-03-06T10:09:57.939Z,2.90
2023-03-06T10:12:28.694Z,2.60
2023-03-06T10:15:24.043Z,3.20
2023-03-06T10:17:51.038Z,2.40
2023-03-06T10:20:28.681Z,3.00
2023-03-06T10:23:35.815Z,2.30
2023-03-06T10:26:11.059Z,1.90
2023-03-06T10:29:13.185Z,2.30
2023-03-06T10:31:49.749Z,1.90
2023-03-06T10:34:28.210Z,2.70
2023-03-06T10:36:55.360Z,2.30
2023-03-06T10:39:23.102Z,4.30
2023-03-06T10:41:50.017Z,4.90
2023-03-06T10:44:18.450Z,2.80
2023-03-06T10:46:47.707Z,2.50
2023-03-06T10:49:30.110Z,4.50
2023-03-06T10:52:03.068Z,1.70
2023-03-06T10:54:39.618Z,2.10
2023-03-06T10:57:20.253Z,1.80
2023-03-06T11:00:08.214Z,2.20
2023-03-06T11:02:37.309Z,2.00
2023-03-06T11:05:05.696Z,2.30
2023-03-06T11:07:36.210Z,2.60
2023-03-06T11:10:07.890Z,1.60
2023-03-06T11:12:39.914Z,2.10
2023-03-06T11:15:19.983Z,1.90
2023-03-06T11:18:05.825Z,1.80
2023-03-06T11:20:50.982Z,2.20
2023-03-06T11:23:26.944Z,2.20
2023-03-06T11:26:15.384Z,1.60
2023-03-06T11:29:12.078Z,2.90
2023-03-06T11:31:55.262Z,2.80
2023-03-06T11:34:42.809Z,4.40
2023-03-06T11:37:46.024Z,2.90
2023-03-06T11:40:24.177Z,4.30
2023-03-06T11:43:16.645Z,6.20
2023-03-06T11:45:48.700Z,6.10
2023-03-06T11:48:15.844Z,5.00
2023-03-06T11:50:52.555Z,7.10
2023-03-06T11:53:28.787Z,6.50
2023-03-06T11:56:31.682Z,8.40
2023-03-06T11:59:36.624Z,5.20
2023-03-06T12:02:19.119Z,3.80
2023-03-06T12:05:31.818Z,3.80
2023-03-06T12:08:36.267Z,4.10
2023-03-06T12:11:12.456Z,2.90
2023-03-06T12:13:49.954Z,4.00
2023-03-06T12:16:32.668Z,3.00
2023-03-06T12:19:17.148Z,2.60
2023-03-06T12:22:17.591Z,2.00
2023-03-06T12:24:56.278Z,2.40
2023-03-06T12:27:45.928Z,2.30
2023-03-06T12:30:21.616Z,1.80
2023-03-06T12:32:57.500Z,2.60
2023-03-06T12:35:46.252Z,2.00
2023-03-06T12:38:45.172Z,1.50
2023-03-06T12:41:36.887Z,0.90
2023-03-06T12:44:27.410Z,1.70
2023-03-06T12:50:47.719Z,1.90
2023-03-06T12:53:30.722Z,3.10
2023-03-06T12:56:00.760Z,3.90
2023-03-06T12:58:30.236Z,1.60
2023-03-06T13:01:44.550Z,2.70
2023-03-06T13:04:36.762Z,2.30
2023-03-06T13:07:19.739Z,2.40
2023-03-06T13:10:01.011Z,1.90
2023-03-06T13:12:39.095Z,3.00
2023-03-06T13:15:41.059Z,1.70
2023-03-06T13:18:42.801Z,2.30
2023-03-06T13:21:45.263Z,1.40
2023-03-06T13:24:24.585Z,1.60
2023-03-06T13:27:08.680Z,2.30
2023-03-06T13:29:49.014Z,3.10
2023-03-06T13:32:22.425Z,2.10
2023-03-06T13:34:50.052Z,1.70
2023-03-06T13:37:20.320Z,1.90
2023-03-06T13:40:10.077Z,3.40
2023-03-06T13:42:57.539Z,2.00
2023-03-06T13:45:28.627Z,2.70
2023-03-06T13:50:49.414Z,3.70
2023-03-06T13:53:34.439Z,1.90
2023-03-06T13:56:36.190Z,1.60
2023-03-06T13:59:15.974Z,2.00
2023-03-06T14:02:24.182Z,1.80
2023-03-06T14:04:54.865Z,4.00
2023-03-06T14:07:30.541Z,2.50
2023-03-06T14:10:18.422Z,1.60
2023-03-06T14:12:50.974Z,1.90
2023-03-06T14:15:22.670Z,2.60
2023-03-06T14:18:23.958Z,1.40
2023-03-06T14:20:54.465Z,3.00
2023-03-06T14:23:38.086Z,1.70
2023-03-06T14:26:25.665Z,2.70
2023-03-06T14:28:52.675Z,2.90
2023-03-06T14:31:22.397Z,2.90
2023-03-06T14:34:02.686Z,1.90
2023-03-06T14:36:47.869Z,1.50
2023-03-06T14:39:37.186Z,4.00
2023-03-06T14:42:16.940Z,4.80
2023-03-06T14:44:44.690Z,2.20
2023-03-06T14:47:26.392Z,1.80
2023-03-06T14:50:21.745Z,2.40
2023-03-06T14:52:57.566Z,1.70
2023-03-06T14:55:26.372Z,3.10
2023-03-06T14:58:07.921Z,1.70
2023-03-06T15:00:38.120Z,1.50
2023-03-06T15:03:16.517Z,1.90
2023-03-06T15:05:45.646Z,1.50
2023-03-06T15:08:17.450Z,1.60
2023-03-06T15:10:55.348Z,2.40
2023-03-06T15:13:25.179Z,1.80
2023-03-06T15:15:56.110Z,1.90
2023-03-06T15:18:35.179Z,1.80
2023-03-06T15:21:14.398Z,1.70
2023-03-06T15:23:44.700Z,1.20
2023-03-06T15:26:21.646Z,1.70
2023-03-06T15:29:09.055Z,1.80
2023-03-06T15:31:44.348Z,1.50
2023-03-06T15:34:11.059Z,1.40
2023-03-06T15:36:48.957Z,1.10
2023-03-06T15:39:30.888Z,1.90
2023-03-06T15:42:26.614Z,1.60
2023-03-06T15:44:55.639Z,2.50
2023-03-06T15:47:23.452Z,1.90
2023-03-06T15:49:57.466Z,2.30
2023-03-06T15:52:24.160Z,2.00
2023-03-06T15:54:50.861Z,2.40
2023-03-06T15:57:32.884Z,2.20
2023-03-06T16:00:03.812Z,3.30
2023-03-06T16:02:32.886Z,5.20
2023-03-06T16:05:02.874Z,2.20
2023-03-06T16:07:29.636Z,3.10
2023-03-06T16:09:56.510Z,1.90
2023-03-06T16:12:23.492Z,2.80
2023-03-06T16:14:50.081Z,3.20
2023-03-06T16:17:18.129Z,2.40
2023-03-06T16:19:45.258Z,2.80
2023-03-06T16:22:12.325Z,2.10
2023-03-06T16:24:40.726Z,3.90
2023-03-06T16:27:15.158Z,4.30
2023-03-06T16:29:44.471Z,3.40
2023-03-06T16:32:11.205Z,2.40
2023-03-06T16:34:37.934Z,2.30
2023-03-06T16:37:06.302Z,4.10
2023-03-06T16:39:33.599Z,1.70
2023-03-06T16:42:00.338Z,2.80
2023-03-06T16:44:27.014Z,4.10
2023-03-06T16:46:53.919Z,2.70
2023-03-06T16:49:23.815Z,2.80
2023-03-06T16:51:51.321Z,2.40
2023-03-06T16:54:18.216Z,2.70
2023-03-06T16:56:45.671Z,13.40
2023-03-06T16:59:12.835Z,21.80
2023-03-06T17:01:42.604Z,10.00
2023-03-06T17:04:09.381Z,7.00
2023-03-06T17:06:36.122Z,4.30
2023-03-06T17:09:02.945Z,5.20
2023-03-06T17:11:29.781Z,4.60
2023-03-06T17:13:56.392Z,5.40
2023-03-06T17:16:23.130Z,5.20
2023-03-06T17:18:50.706Z,2.50
2023-03-06T17:21:17.514Z,4.80
2023-03-06T17:23:44.928Z,4.00
2023-03-06T17:26:20.538Z,5.50
2023-03-06T17:28:47.506Z,3.90
2023-03-06T17:31:19.677Z,4.90
2023-03-06T17:33:46.593Z,4.50
2023-03-06T17:36:14.615Z,6.50
2023-03-06T17:38:42.849Z,5.40
2023-03-06T17:41:10.708Z,4.70
2023-03-06T17:43:39.110Z,4.30
2023-03-06T17:46:08.303Z,6.00
2023-03-06T17:48:35.311Z,5.40
2023-03-06T17:51:02.302Z,3.00
2023-03-06T17:53:29.265Z,3.10
2023-03-06T17:55:59.419Z,4.40
2023-03-06T17:58:27.171Z,5.70
2023-03-06T18:00:54.428Z,2.50
2023-03-06T18:03:21.798Z,4.20
2023-03-06T18:05:57.793Z,4.50
2023-03-06T18:08:24.651Z,3.20
2023-03-06T18:10:51.528Z,2.20
2023-03-06T18:13:18.439Z,2.70
2023-03-06T18:15:45.069Z,2.70
2023-03-06T18:18:11.579Z,3.70
2023-03-06T18:20:42.064Z,3.50
2023-03-06T18:23:09.022Z,5.40
2023-03-06T18:25:35.985Z,3.30
2023-03-06T18:28:02.464Z,4.20
2023-03-06T18:30:29.020Z,6.20
2023-03-06T18:32:55.862Z,4.20
2023-03-06T18:35:22.654Z,5.30
2023-03-06T18:37:49.204Z,5.90
2023-03-06T18:40:16.134Z,5.10
2023-03-06T18:42:42.969Z,5.30
2023-03-06T18:45:10.395Z,4.70
2023-03-06T18:47:37.001Z,5.30
2023-03-06T18:50:03.823Z,5.00
2023-03-06T18:52:30.509Z,6.50
2023-03-06T18:54:57.230Z,4.40
2023-03-06T18:57:24.238Z,4.60
2023-03-06T18:59:50.946Z,4.30
2023-03-06T19:02:17.620Z,5.50
2023-03-06T19:04:47.348Z,6.30
2023-03-06T19:07:15.212Z,5.80
2023-03-06T19:09:44.316Z,5.60
2023-03-06T19:12:11.523Z,6.20
2023-03-06T19:14:38.229Z,4.60
2023-03-06T19:17:04.978Z,6.40
2023-03-06T19:19:31.452Z,6.10
2023-03-06T19:21:59.304Z,8.50
2023-03-06T19:24:26.637Z,7.60
2023-03-06T19:26:53.393Z,5.00
2023-03-06T19:29:20.276Z,5.90
2023-03-06T19:31:52.135Z,6.10
2023-03-06T19:34:18.800Z,8.30
2023-03-06T19:36:45.473Z,6.70
2023-03-06T19:39:12.177Z,5.00
2023-03-06T19:41:39.125Z,7.30
2023-03-06T19:44:06.181Z,5.70
2023-03-06T19:46:34.615Z,6.60
2023-03-06T19:49:03.497Z,5.90
2023-03-06T19:51:30.443Z,5.60
2023-03-06T19:53:58.074Z,6.80
2023-03-06T19:56:27.490Z,6.30
2023-03-06T19:58:54.788Z,6.60
2023-03-06T20:01:23.136Z,7.70
2023-03-06T20:03:52.991Z,6.70
2023-03-06T20:06:20.181Z,8.50
2023-03-06T20:08:47.461Z,7.20
2023-03-06T20:11:24.290Z,7.00
2023-03-06T20:13:50.923Z,8.60
2023-03-06T20:16:18.545Z,7.90
2023-03-06T20:18:45.717Z,7.60
2023-03-06T20:21:13.318Z,6.20
2023-03-06T20:23:39.916Z,6.60
2023-03-06T20:26:11.889Z,7.00
2023-03-06T20:28:40.045Z,7.10
2023-03-06T20:31:20.854Z,7.00
2023-03-06T20:33:50.741Z,6.80
2023-03-06T20:36:23.232Z,7.60
2023-03-06T20:38:51.374Z,8.30
2023-03-06T20:41:24.589Z,7.50
2023-03-06T20:43:51.688Z,7.60
2023-03-06T20:46:20.030Z,9.10
2023-03-06T20:48:52.181Z,7.90
2023-03-06T20:51:24.360Z,7.90
2023-03-06T20:53:55.714Z,8.30
2023-03-06T20:56:27.326Z,8.50
2023-03-06T20:58:56.847Z,8.70
2023-03-06T21:01:26.101Z,8.90
2023-03-06T21:03:53.198Z,9.80
2023-03-06T21:06:20.838Z,8.30
2023-03-06T21:08:47.816Z,9.70
2023-03-06T21:11:15.129Z,9.40
2023-03-06T21:13:41.581Z,9.00
2023-03-06T21:16:11.540Z,11.40
2023-03-06T21:18:41.683Z,10.80
2023-03-06T21:21:20.408Z,11.00
2023-03-06T21:23:48.360Z,11.50
2023-03-06T21:26:22.744Z,10.00
2023-03-06T21:28:49.321Z,11.10
2023-03-06T21:31:18.270Z,11.00
2023-03-06T21:33:45.647Z,11.50
2023-03-06T21:36:12.832Z,10.50
2023-03-06T21:38:39.621Z,10.20
2023-03-06T21:41:20.141Z,11.60
2023-03-06T21:43:46.809Z,12.50
2023-03-06T21:46:13.883Z,11.70
2023-03-06T21:48:40.822Z,11.00
2023-03-06T21:51:10.487Z,13.60
2023-03-06T21:53:41.687Z,13.40
2023-03-06T21:56:11.979Z,13.50
2023-03-06T21:58:39.182Z,13.80
2023-03-06T22:01:16.873Z,14.00
2023-03-06T22:03:43.486Z,15.60
2023-03-06T22:06:17.834Z,19.40
2023-03-06T22:08:47.352Z,17.60
2023-03-06T22:11:16.561Z,18.20
2023-03-06T22:13:44.838Z,17.30
2023-03-06T22:16:12.133Z,19.20
2023-03-06T22:18:38.876Z,18.80
2023-03-06T22:21:14.271Z,20.00
2023-03-06T22:23:40.837Z,20.00
2023-03-06T22:26:10.390Z,21.80
2023-03-06T22:28:37.868Z,21.20
2023-03-06T22:31:13.291Z,21.60
2023-03-06T22:33:40.668Z,21.10
2023-03-06T22:36:12.359Z,21.00
2023-03-06T22:38:43.067Z,21.60
2023-03-06T22:41:10.943Z,20.60
2023-03-06T22:43:37.705Z,21.80
2023-03-06T22:46:07.241Z,24.90
2023-03-06T22:48:34.306Z,23.20
2023-03-06T22:51:05.916Z,24.40
2023-03-06T22:53:33.427Z,23.60
2023-03-06T22:56:01.279Z,23.60
2023-03-06T22:58:34.213Z,23.60
2023-03-06T23:01:21.102Z,23.70
2023-03-06T23:03:50.156Z,23.70
2023-03-06T23:06:34.158Z,23.80
2023-03-06T23:09:03.353Z,24.40
2023-03-06T23:11:30.440Z,23.20
2023-03-06T23:13:58.798Z,24.70
2023-03-06T23:16:25.569Z,25.00
2023-03-06T23:18:53.398Z,24.20
2023-03-06T23:21:24.560Z,22.80
2023-03-06T23:23:54.829Z,24.20
2023-03-06T23:26:24.828Z,23.90
2023-03-06T23:28:52.679Z,23.10
2023-03-06T23:31:22.966Z,26.60
2023-03-06T23:33:53.225Z,24.80
2023-03-06T23:36:19.840Z,22.60
2023-03-06T23:38:49.255Z,24.10
2023-03-06T23:41:18.098Z,25.20
2023-03-06T23:43:45.848Z,24.80
2023-03-06T23:46:13.505Z,23.50
2023-03-06T23:48:41.570Z,21.90
2023-03-06T23:51:19.154Z,21.60
2023-03-06T23:53:52.515Z,25.30
2023-03-06T23:56:19.362Z,24.10
2023-03-06T23:58:48.195Z,23.30
